Time;durP1;ratioP1;P1;durP2;ratioP2;P2;SDS_P1;SDS_P2;PMS_P1;PMS_P2;Temp;Humidity;BMP_temperature;BMP_pressure;BME280_temperature;BME280_humidity;BME280_pressure;Samples;Min_cycle;Max_cycle;Signal;HPM_P1;HPM_P2
2021/11/05 00:01:44;;;;;;;1.80;1.30;;;10.70;75.50;;;;;;5113694;28;20419;-89
2021/11/05 00:04:11;;;;;;;2.15;1.20;;;10.70;75.90;;;;;;5113855;28;20030;-89
2021/11/05 00:06:37;;;;;;;2.55;1.40;;;10.70;76.30;;;;;;5113639;28;20099;-90
2021/11/05 00:09:03;;;;;;;2.22;1.48;;;10.70;76.20;;;;;;5114257;28;20118;-89
2021/11/05 00:11:28;;;;;;;1.90;1.45;;;10.70;76.50;;;;;;5113469;28;20024;-89
2021/11/05 00:13:54;;;;;;;1.63;1.17;;;10.80;76.60;;;;;;5113764;28;20020;-88
2021/11/05 00:16:19;;;;;;;2.88;1.23;;;10.80;76.40;;;;;;5092833;28;20024;-88
2021/11/05 00:18:45;;;;;;;3.33;1.50;;;10.80;76.30;;;;;;5110785;28;20038;-89
2021/11/05 00:21:11;;;;;;;4.15;1.65;;;10.80;76.20;;;;;;5112997;28;20084;-88
2021/11/05 00:23:37;;;;;;;2.53;1.40;;;10.80;76.30;;;;;;5101688;28;20080;-91
2021/11/05 00:26:03;;;;;;;2.25;1.33;;;10.80;76.40;;;;;;5139693;27;20078;-89
2021/11/05 00:28:28;;;;;;;2.03;1.20;;;10.70;76.50;;;;;;5114118;28;20066;-87
2021/11/05 00:30:54;;;;;;;2.13;1.40;;;10.80;76.50;;;;;;5109007;28;20047;-90
2021/11/05 00:33:20;;;;;;;2.35;1.20;;;10.80;76.40;;;;;;5094828;28;20030;-90
2021/11/05 00:35:45;;;;;;;3.25;1.67;;;10.80;76.40;;;;;;5095079;28;20059;-90
2021/11/05 00:38:11;;;;;;;1.90;1.40;;;10.70;76.00;;;;;;5112931;28;20468;-90
2021/11/05 00:40:37;;;;;;;2.88;1.23;;;10.80;76.50;;;;;;5112810;28;20066;-87
2021/11/05 00:43:02;;;;;;;2.50;1.23;;;10.80;76.70;;;;;;5110428;28;20479;-83
2021/11/05 00:45:28;;;;;;;2.67;1.40;;;10.80;76.50;;;;;;5109619;28;20074;-84
2021/11/05 00:47:54;;;;;;;3.83;1.25;;;10.80;76.30;;;;;;5111415;28;20084;-83
2021/11/05 00:50:20;;;;;;;2.50;1.48;;;10.70;76.40;;;;;;5096399;28;20024;-82
2021/11/05 00:52:45;;;;;;;2.25;1.27;;;10.80;76.50;;;;;;5114893;28;20027;-83
2021/11/05 00:55:11;;;;;;;3.83;1.30;;;10.80;76.50;;;;;;5096732;28;20107;-83
2021/11/05 00:57:37;;;;;;;1.95;1.15;;;10.80;76.70;;;;;;5113528;28;20034;-84
2021/11/05 01:00:09;;;;;;;2.78;1.40;;;10.80;76.70;;;;;;5113822;28;20030;-84
2021/11/05 01:02:34;;;;;;;2.45;1.30;;;10.70;76.40;;;;;;5113914;28;20024;-83
2021/11/05 01:05:00;;;;;;;1.90;1.20;;;10.70;76.80;;;;;;5114038;28;20492;-84
2021/11/05 01:07:26;;;;;;;2.30;1.30;;;10.60;76.80;;;;;;5114743;28;20044;-83
2021/11/05 01:09:51;;;;;;;2.55;1.33;;;10.70;76.80;;;;;;5114858;28;20046;-82
2021/11/05 01:12:19;;;;;;;2.75;1.50;;;10.70;77.10;;;;;;5105478;28;20502;-82
2021/11/05 01:14:44;;;;;;;3.25;1.42;;;10.70;77.00;;;;;;5112768;28;20011;-85
2021/11/05 01:17:10;;;;;;;4.30;1.48;;;10.80;77.20;;;;;;5113356;28;20099;-84
2021/11/05 01:19:36;;;;;;;2.45;1.45;;;10.80;77.00;;;;;;5130481;27;20035;-82
2021/11/05 01:22:02;;;;;;;1.83;1.08;;;10.70;76.80;;;;;;5114157;28;20032;-82
2021/11/05 01:24:28;;;;;;;3.35;1.30;;;10.70;77.00;;;;;;5120224;27;20483;-83
2021/11/05 01:26:53;;;;;;;2.65;1.48;;;10.70;76.90;;;;;;5139580;27;20079;-82
2021/11/05 01:29:19;;;;;;;3.90;1.40;;;10.60;76.90;;;;;;5113747;28;20118;-83
2021/11/05 01:31:45;;;;;;;1.77;1.30;;;10.60;77.20;;;;;;5114933;28;20076;-83
2021/11/05 01:34:11;;;;;;;2.90;1.65;;;10.70;77.40;;;;;;5114439;28;20059;-84
2021/11/05 01:36:36;;;;;;;2.50;1.70;;;10.60;77.40;;;;;;5114575;28;20081;-84
2021/11/05 01:39:03;;;;;;;2.97;1.45;;;10.70;77.30;;;;;;5113266;28;20020;-84
2021/11/05 01:41:29;;;;;;;1.98;1.27;;;10.70;77.50;;;;;;5110865;28;20062;-85
2021/11/05 01:43:55;;;;;;;2.83;1.30;;;10.70;77.40;;;;;;5113887;28;20059;-84
2021/11/05 01:46:21;;;;;;;3.00;1.45;;;10.70;77.60;;;;;;5112592;28;20114;-84
2021/11/05 01:48:47;;;;;;;1.90;1.30;;;10.70;77.00;;;;;;5113714;28;20032;-84
2021/11/05 01:51:16;;;;;;;2.30;1.27;;;10.70;76.90;;;;;;5113868;28;20024;-84
2021/11/05 01:53:41;;;;;;;2.17;1.45;;;10.70;76.80;;;;;;5113699;28;20023;-83
2021/11/05 01:56:07;;;;;;;3.20;1.42;;;10.60;77.20;;;;;;5113938;28;20027;-83
2021/11/05 01:58:33;;;;;;;4.15;1.40;;;10.50;76.80;;;;;;5113738;28;20042;-84
2021/11/05 02:00:58;;;;;;;1.92;1.15;;;10.50;77.40;;;;;;5113867;28;20084;-84
2021/11/05 02:03:24;;;;;;;2.15;1.00;;;10.40;76.80;;;;;;5113355;28;20118;-84
2021/11/05 02:05:52;;;;;;;2.50;1.70;;;10.40;77.60;;;;;;5113556;28;20031;-83
2021/11/05 02:08:19;;;;;;;3.53;1.55;;;10.40;77.60;;;;;;5095457;28;20024;-82
2021/11/05 02:10:47;;;;;;;1.90;1.20;;;10.30;77.50;;;;;;5110657;27;20027;-83
2021/11/05 02:13:13;;;;;;;1.63;1.13;;;10.30;77.80;;;;;;5113026;28;20823;-83
2021/11/05 02:15:40;;;;;;;1.55;1.10;;;10.30;77.70;;;;;;5095201;28;20019;-84
2021/11/05 02:18:08;;;;;;;2.95;1.52;;;10.30;77.60;;;;;;5113765;28;20419;-85
2021/11/05 02:20:34;;;;;;;2.40;1.52;;;10.20;77.60;;;;;;5113442;28;20030;-84
2021/11/05 02:23:00;;;;;;;2.55;1.13;;;10.20;77.80;;;;;;5095232;28;20467;-84
2021/11/05 02:25:26;;;;;;;2.45;1.23;;;10.20;77.60;;;;;;5127655;27;20504;-85
2021/11/05 02:27:53;;;;;;;2.67;1.13;;;10.10;78.20;;;;;;5114569;27;20047;-85
2021/11/05 02:30:19;;;;;;;2.90;1.50;;;10.20;78.10;;;;;;5112985;28;20664;-84
2021/11/05 02:32:45;;;;;;;3.33;1.20;;;10.20;77.60;;;;;;5090573;28;20028;-85
2021/11/05 02:35:15;;;;;;;1.88;1.27;;;10.20;77.50;;;;;;5113454;28;20089;-86
2021/11/05 02:37:41;;;;;;;1.85;1.25;;;10.10;77.60;;;;;;5113420;28;20032;-86
2021/11/05 02:40:08;;;;;;;2.05;1.10;;;10.10;77.90;;;;;;5081152;28;20086;-86
2021/11/05 02:42:34;;;;;;;2.33;1.17;;;10.10;77.70;;;;;;5113534;28;20023;-86
2021/11/05 02:45:00;;;;;;;2.13;1.10;;;10.00;77.90;;;;;;5108748;28;20024;-85
2021/11/05 02:47:27;;;;;;;1.95;1.20;;;10.00;78.00;;;;;;5094875;28;20057;-87
2021/11/05 02:49:56;;;;;;;2.40;1.08;;;10.00;78.10;;;;;;5114056;28;20027;-86
2021/11/05 02:52:22;;;;;;;2.05;1.20;;;10.10;77.90;;;;;;5113435;28;20096;-86
2021/11/05 02:54:48;;;;;;;3.30;1.20;;;10.10;78.10;;;;;;5112159;28;20020;-87
2021/11/05 02:57:14;;;;;;;5.20;1.30;;;10.00;78.20;;;;;;5090155;28;20487;-85
2021/11/05 02:59:40;;;;;;;2.00;1.27;;;10.10;78.70;;;;;;5112258;28;20575;-84
2021/11/05 03:02:07;;;;;;;2.70;1.30;;;10.10;78.70;;;;;;5112508;28;20152;-84
2021/11/05 03:04:33;;;;;;;1.77;1.33;;;10.10;78.80;;;;;;5113685;28;20023;-89
2021/11/05 03:07:06;;;;;;;3.60;1.45;;;10.10;78.80;;;;;;5114186;28;20122;-89
2021/11/05 03:09:34;;;;;;;1.65;1.17;;;10.20;78.60;;;;;;5112894;28;20027;-90
2021/11/05 03:12:01;;;;;;;3.40;1.25;;;10.20;78.70;;;;;;5113670;28;20480;-89
2021/11/05 03:14:28;;;;;;;3.13;1.20;;;10.20;78.40;;;;;;5114480;28;20051;-87
2021/11/05 03:16:54;;;;;;;1.73;1.27;;;10.30;78.40;;;;;;5112515;28;20024;-85
2021/11/05 03:19:20;;;;;;;2.40;1.35;;;10.30;78.30;;;;;;5113052;28;20019;-88
2021/11/05 03:21:46;;;;;;;3.30;1.10;;;10.30;78.20;;;;;;5089279;28;20028;-84
2021/11/05 03:24:12;;;;;;;2.28;1.30;;;10.30;78.50;;;;;;5114812;27;20072;-84
2021/11/05 03:26:38;;;;;;;4.20;1.67;;;10.20;78.30;;;;;;5117307;27;20453;-84
2021/11/05 03:29:04;;;;;;;3.45;1.33;;;10.10;78.00;;;;;;5112235;28;20015;-83
2021/11/05 03:31:30;;;;;;;3.70;1.20;;;10.10;78.70;;;;;;5112363;28;20566;-82
2021/11/05 03:33:55;;;;;;;2.15;1.40;;;10.20;79.10;;;;;;5111015;28;20032;-82
2021/11/05 03:36:21;;;;;;;2.78;1.33;;;10.10;78.80;;;;;;5106788;28;20104;-82
2021/11/05 03:38:47;;;;;;;2.83;1.60;;;10.20;78.90;;;;;;5103046;28;20030;-82
2021/11/05 03:41:12;;;;;;;2.65;1.30;;;10.20;78.80;;;;;;5093757;28;20047;-83
2021/11/05 03:43:38;;;;;;;1.95;1.13;;;10.20;78.90;;;;;;5093879;28;20106;-82
2021/11/05 03:46:06;;;;;;;2.40;1.33;;;10.20;79.20;;;;;;5111767;28;20503;-83
2021/11/05 03:48:35;;;;;;;2.28;1.50;;;10.10;79.00;;;;;;5111405;28;20127;-83
2021/11/05 03:51:02;;;;;;;2.95;1.30;;;10.10;79.60;;;;;;5111380;28;20399;-82
2021/11/05 03:53:27;;;;;;;4.18;1.50;;;10.10;78.70;;;;;;5111467;28;20043;-87
2021/11/05 03:55:53;;;;;;;4.00;1.40;;;10.10;78.80;;;;;;5112071;28;20118;-87
2021/11/05 03:58:19;;;;;;;2.70;1.40;;;10.10;78.90;;;;;;5112571;28;20027;-87
2021/11/05 04:00:44;;;;;;;2.92;1.30;;;10.10;79.20;;;;;;5111508;28;20049;-85
2021/11/05 04:03:10;;;;;;;2.65;1.23;;;10.10;79.20;;;;;;5111457;28;20399;-85
2021/11/05 04:05:36;;;;;;;2.17;1.42;;;10.00;79.20;;;;;;5111125;28;20488;-85
2021/11/05 04:08:02;;;;;;;1.88;1.35;;;10.10;79.20;;;;;;5111683;28;20024;-85
2021/11/05 04:10:28;;;;;;;1.90;1.40;;;10.00;79.10;;;;;;5114220;28;20506;-88
2021/11/05 04:12:54;;;;;;;2.50;1.30;;;10.00;79.10;;;;;;5118688;28;20055;-87
2021/11/05 04:15:20;;;;;;;1.92;1.33;;;10.00;79.10;;;;;;5118999;28;20047;-88
2021/11/05 04:17:45;;;;;;;1.50;1.20;;;9.90;79.20;;;;;;5117204;28;20027;-87
2021/11/05 04:20:11;;;;;;;2.83;1.40;;;9.90;79.10;;;;;;5114659;28;20020;-82
2021/11/05 04:22:38;;;;;;;3.78;1.75;;;9.90;79.40;;;;;;5111200;28;20027;-82
2021/11/05 04:25:05;;;;;;;2.58;1.40;;;9.90;79.60;;;;;;5122289;27;20028;-80
2021/11/05 04:27:30;;;;;;;1.80;1.35;;;9.90;79.40;;;;;;5115939;27;20067;-81
2021/11/05 04:29:56;;;;;;;2.47;1.50;;;9.90;79.40;;;;;;5111671;28;20050;-81
2021/11/05 04:32:22;;;;;;;1.92;1.42;;;9.90;79.30;;;;;;5093566;28;20081;-82
2021/11/05 04:34:47;;;;;;;3.10;1.67;;;9.90;79.40;;;;;;5111725;28;20438;-81
2021/11/05 04:37:13;;;;;;;2.85;1.30;;;10.00;80.10;;;;;;5093496;28;20026;-82
2021/11/05 04:39:38;;;;;;;2.67;1.35;;;10.00;80.00;;;;;;5111246;28;20059;-82
2021/11/05 04:42:04;;;;;;;3.72;1.25;;;10.10;80.00;;;;;;5105634;28;20023;-82
2021/11/05 04:44:30;;;;;;;3.10;1.15;;;10.20;79.50;;;;;;5111745;28;20035;-84
2021/11/05 04:46:56;;;;;;;4.32;1.10;;;10.30;79.70;;;;;;5110972;28;20036;-83
2021/11/05 04:49:24;;;;;;;3.25;1.25;;;10.30;79.80;;;;;;5108113;28;20023;-83
2021/11/05 04:51:50;;;;;;;1.77;0.90;;;10.30;79.70;;;;;;5092550;28;20027;-84
2021/11/05 04:54:17;;;;;;;1.77;0.90;;;10.30;79.50;;;;;;5111649;28;20028;-84
2021/11/05 04:56:44;;;;;;;2.72;0.90;;;10.40;79.50;;;;;;5093178;28;20055;-84
2021/11/05 04:59:10;;;;;;;1.70;1.10;;;10.30;79.30;;;;;;5093536;28;20126;-83
2021/11/05 05:01:37;;;;;;;2.00;1.00;;;10.30;79.50;;;;;;5107948;28;20058;-84
2021/11/05 05:04:03;;;;;;;1.05;0.90;;;10.30;79.80;;;;;;5111436;28;20480;-82
2021/11/05 05:06:28;;;;;;;2.38;1.00;;;10.30;79.40;;;;;;5110951;28;20545;-82
2021/11/05 05:08:54;;;;;;;2.13;1.00;;;10.30;79.60;;;;;;5110561;28;20028;-82
2021/11/05 05:11:20;;;;;;;1.65;0.93;;;10.40;79.80;;;;;;5110958;28;20035;-81
2021/11/05 05:13:45;;;;;;;1.95;1.10;;;10.40;79.50;;;;;;5111609;28;20488;-84
2021/11/05 05:16:11;;;;;;;2.38;1.23;;;10.40;79.00;;;;;;5110613;28;20112;-84
2021/11/05 05:18:37;;;;;;;2.78;1.10;;;10.40;79.30;;;;;;5088659;28;20034;-85
2021/11/05 05:21:03;;;;;;;1.67;0.82;;;10.40;79.10;;;;;;5110976;28;20024;-84
2021/11/05 05:23:28;;;;;;;1.60;1.05;;;10.30;79.20;;;;;;5111322;28;20480;-82
2021/11/05 05:25:54;;;;;;;3.08;0.95;;;10.20;78.80;;;;;;5127015;28;20047;-82
2021/11/05 05:28:20;;;;;;;2.53;1.00;;;10.20;79.00;;;;;;5127702;28;20028;-81
2021/11/05 05:30:46;;;;;;;2.05;1.00;;;10.10;78.90;;;;;;5088479;28;20118;-86
2021/11/05 05:33:12;;;;;;;2.10;0.90;;;10.00;79.20;;;;;;5111722;28;20020;-86
2021/11/05 05:35:37;;;;;;;2.63;1.00;;;10.00;79.00;;;;;;5114646;28;20020;-85
2021/11/05 05:38:03;;;;;;;3.22;1.13;;;10.00;79.30;;;;;;5115108;28;20016;-85
2021/11/05 05:40:29;;;;;;;2.20;1.10;;;9.90;79.00;;;;;;5115635;28;20031;-85
2021/11/05 05:42:55;;;;;;;1.55;0.98;;;9.80;79.30;;;;;;5115092;28;20058;-85
2021/11/05 05:45:21;;;;;;;1.92;1.10;;;9.80;79.60;;;;;;5110142;28;20372;-84
2021/11/05 05:47:47;;;;;;;1.85;1.00;;;9.70;79.60;;;;;;5114391;28;20068;-83
2021/11/05 05:50:16;;;;;;;2.45;1.05;;;9.70;79.70;;;;;;5114260;28;20028;-83
2021/11/05 05:52:43;;;;;;;2.05;0.98;;;9.70;79.50;;;;;;5113625;28;20015;-82
2021/11/05 05:55:10;;;;;;;1.55;1.08;;;9.60;79.40;;;;;;5081732;28;20024;-83
2021/11/05 05:57:36;;;;;;;1.80;1.10;;;9.60;79.40;;;;;;5110367;28;20038;-83
2021/11/05 06:00:08;;;;;;;1.95;1.00;;;9.50;79.30;;;;;;5114359;28;21885;-83
2021/11/05 06:02:34;;;;;;;2.08;0.88;;;9.50;79.90;;;;;;5114344;28;20074;-84
2021/11/05 06:04:59;;;;;;;1.80;0.95;;;9.50;79.40;;;;;;5114004;28;20515;-83
2021/11/05 06:07:25;;;;;;;3.38;1.30;;;9.40;79.80;;;;;;5115009;28;20110;-84
2021/11/05 06:09:51;;;;;;;2.22;1.10;;;9.40;79.90;;;;;;5114331;28;20164;-83
2021/11/05 06:12:16;;;;;;;2.33;1.08;;;9.50;80.00;;;;;;5114037;28;20033;-83
2021/11/05 06:14:42;;;;;;;2.63;1.05;;;9.40;79.60;;;;;;5114178;28;20024;-84
2021/11/05 06:17:07;;;;;;;2.65;1.08;;;9.40;79.90;;;;;;5098148;28;20024;-84
2021/11/05 06:19:34;;;;;;;2.63;1.17;;;9.30;79.50;;;;;;5114415;28;20020;-84
2021/11/05 06:21:59;;;;;;;3.17;1.10;;;9.40;80.10;;;;;;5114140;28;20023;-86
2021/11/05 06:24:25;;;;;;;2.65;1.10;;;9.40;80.20;;;;;;5119487;27;20050;-86
2021/11/05 06:26:51;;;;;;;2.55;1.08;;;9.30;79.90;;;;;;5124063;27;20042;-85
2021/11/05 06:29:17;;;;;;;2.65;1.13;;;9.30;79.80;;;;;;5114415;28;20030;-86
2021/11/05 06:31:43;;;;;;;1.40;1.20;;;9.30;79.90;;;;;;5095591;28;20024;-85
2021/11/05 06:34:09;;;;;;;3.13;1.20;;;9.30;79.90;;;;;;5095485;28;20036;-85
2021/11/05 06:36:35;;;;;;;1.73;1.20;;;9.30;79.70;;;;;;5110808;28;20042;-84
2021/11/05 06:39:05;;;;;;;1.88;1.35;;;9.30;80.90;;;;;;5107557;28;20442;-84
2021/11/05 06:41:31;;;;;;;1.73;1.20;;;9.20;80.00;;;;;;5110874;28;20027;-87
2021/11/05 06:43:57;;;;;;;2.30;1.23;;;9.20;80.00;;;;;;5093268;28;20036;-86
2021/11/05 06:46:23;;;;;;;2.38;1.00;;;9.20;79.80;;;;;;5095422;28;20027;-86
2021/11/05 06:48:49;;;;;;;1.42;1.10;;;9.10;79.60;;;;;;5120039;28;20099;-92
2021/11/05 06:51:15;;;;;;;5.75;1.25;;;9.10;79.90;;;;;;5123323;28;20016;-89
2021/11/05 06:53:42;;;;;;;3.72;1.40;;;9.10;80.10;;;;;;5118781;28;20099;-91
2021/11/05 06:56:08;;;;;;;3.30;1.38;;;9.10;80.30;;;;;;5116486;28;20051;-93
2021/11/05 06:58:37;;;;;;;2.47;1.33;;;9.20;80.30;;;;;;5115504;28;20100;-89
2021/11/05 07:01:05;;;;;;;3.33;1.27;;;9.20;79.80;;;;;;5114591;28;20042;-89
2021/11/05 07:03:31;;;;;;;3.13;1.40;;;9.20;79.60;;;;;;5111960;28;20020;-86
2021/11/05 07:05:58;;;;;;;2.40;1.40;;;9.20;80.10;;;;;;5093240;28;20151;-90
2021/11/05 07:08:25;;;;;;;1.88;1.40;;;9.20;79.80;;;;;;5115756;28;20167;-89
2021/11/05 07:10:50;;;;;;;2.03;1.50;;;9.10;80.10;;;;;;5114513;28;20418;-89
2021/11/05 07:13:16;;;;;;;3.58;1.35;;;9.20;80.70;;;;;;5122605;27;20030;-84
2021/11/05 07:15:42;;;;;;;2.00;1.40;;;9.10;79.70;;;;;;5110365;27;20577;-85
2021/11/05 07:18:07;;;;;;;2.97;1.27;;;9.10;79.50;;;;;;5092436;28;20080;-85
2021/11/05 07:20:35;;;;;;;2.13;1.20;;;9.10;80.20;;;;;;5114502;27;20034;-85
2021/11/05 07:23:01;;;;;;;1.73;1.38;;;9.30;79.90;;;;;;5114103;28;20020;-93
2021/11/05 07:25:27;;;;;;;1.85;1.30;;;9.40;79.90;;;;;;5098023;28;20070;-91
2021/11/05 07:27:53;;;;;;;2.00;1.45;;;9.40;79.60;;;;;;5116286;28;20492;-89
2021/11/05 07:30:18;;;;;;;2.42;1.50;;;9.50;79.30;;;;;;5115511;28;20015;-90
2021/11/05 07:32:45;;;;;;;2.50;1.30;;;9.70;79.40;;;;;;5117650;28;20097;-91
2021/11/05 07:35:15;;;;;;;1.83;1.42;;;9.90;79.50;;;;;;5116158;27;20023;-85
2021/11/05 07:37:42;;;;;;;2.03;1.42;;;10.20;79.20;;;;;;5119761;27;20065;-89
2021/11/05 07:40:08;;;;;;;2.53;1.70;;;10.50;78.50;;;;;;5117501;28;20031;-92
2021/11/05 07:42:36;;;;;;;2.78;1.65;;;10.70;78.10;;;;;;5117181;28;20023;-89
2021/11/05 07:45:03;;;;;;;2.00;1.17;;;11.00;77.40;;;;;;5140131;27;20022;-92
2021/11/05 07:47:28;;;;;;;3.83;1.70;;;11.20;76.80;;;;;;5185309;22;20149;-94
2021/11/05 07:49:54;;;;;;;2.38;1.75;;;11.30;75.80;;;;;;5102950;28;20034;-93
2021/11/05 07:52:19;;;;;;;4.63;1.42;;;11.50;75.20;;;;;;5118745;28;20111;-91
2021/11/05 07:54:47;;;;;;;3.92;1.67;;;11.80;75.50;;;;;;5120761;28;20028;-93
2021/11/05 07:57:13;;;;;;;6.78;1.88;;;12.00;74.60;;;;;;5115468;28;20077;-93
2021/11/05 07:59:40;;;;;;;2.58;1.42;;;12.30;74.90;;;;;;5114725;28;20031;-94
2021/11/05 08:02:06;;;;;;;2.58;1.73;;;12.70;73.70;;;;;;5116292;28;20017;-90
2021/11/05 08:04:31;;;;;;;2.55;1.50;;;12.80;73.00;;;;;;5116989;28;20028;-89
2021/11/05 08:06:57;;;;;;;2.58;1.77;;;13.00;71.70;;;;;;5089515;28;20051;-72
2021/11/05 08:09:23;;;;;;;3.25;1.80;;;13.00;71.00;;;;;;5090414;28;20504;-72
2021/11/05 08:11:48;;;;;;;4.90;2.05;;;13.00;71.90;;;;;;5088302;28;20028;-70
2021/11/05 08:14:14;;;;;;;2.60;1.70;;;12.90;71.00;;;;;;5087844;28;20946;-70
2021/11/05 08:16:40;;;;;;;2.85;1.85;;;12.90;71.30;;;;;;5090794;28;20035;-69
2021/11/05 08:19:06;;;;;;;2.97;1.90;;;13.00;71.40;;;;;;5090079;28;20397;-69
2021/11/05 08:21:32;;;;;;;3.90;2.42;;;13.00;70.80;;;;;;5087781;28;20031;-69
2021/11/05 08:23:58;;;;;;;3.42;1.83;;;13.20;71.80;;;;;;5088136;28;20144;-69
2021/11/05 08:26:25;;;;;;;3.92;1.90;;;13.40;71.20;;;;;;5088254;28;20135;-68
2021/11/05 08:28:51;;;;;;;3.55;1.75;;;13.50;70.30;;;;;;5090406;28;20100;-65
2021/11/05 08:31:17;;;;;;;3.15;2.00;;;13.70;70.90;;;;;;5089413;28;20060;-66
2021/11/05 08:33:44;;;;;;;3.17;2.15;;;14.00;70.10;;;;;;5086839;28;20051;-64
2021/11/05 08:36:12;;;;;;;3.55;2.40;;;14.20;69.50;;;;;;5088189;28;20354;-64
2021/11/05 08:38:38;;;;;;;4.15;2.03;;;14.50;68.90;;;;;;5088023;28;20028;-65
2021/11/05 08:41:04;;;;;;;3.58;1.80;;;14.70;68.30;;;;;;5089457;28;20035;-66
2021/11/05 08:43:32;;;;;;;2.63;1.63;;;14.80;67.40;;;;;;5090422;28;20512;-64
2021/11/05 08:46:03;;;;;;;2.42;1.60;;;14.90;66.90;;;;;;5088672;28;20079;-67
2021/11/05 08:48:29;;;;;;;3.17;1.88;;;15.00;66.90;;;;;;5088763;28;20056;-65
2021/11/05 08:51:00;;;;;;;3.92;1.90;;;15.20;66.70;;;;;;5089599;28;20024;-65
2021/11/05 08:53:26;;;;;;;4.38;1.98;;;15.30;65.60;;;;;;5089533;28;20133;-65
2021/11/05 08:55:52;;;;;;;2.95;1.80;;;15.40;64.60;;;;;;5092542;28;20519;-66
2021/11/05 08:58:18;;;;;;;2.58;1.70;;;15.60;66.00;;;;;;5090195;28;20035;-65
2021/11/05 09:00:44;;;;;;;2.85;1.55;;;15.70;63.80;;;;;;5088077;28;20103;-70
2021/11/05 09:03:09;;;;;;;1.90;1.30;;;16.00;64.00;;;;;;5087949;28;20099;-71
2021/11/05 09:05:37;;;;;;;4.43;1.50;;;16.30;62.40;;;;;;5088115;28;20099;-72
2021/11/05 09:08:04;;;;;;;2.55;1.60;;;16.50;60.50;;;;;;5089140;28;20042;-72
2021/11/05 09:10:30;;;;;;;3.08;1.40;;;16.80;58.20;;;;;;5094220;28;20016;-71
2021/11/05 09:12:56;;;;;;;1.42;1.10;;;16.90;57.70;;;;;;5091488;28;20040;-71
2021/11/05 09:15:24;;;;;;;3.05;1.25;;;16.70;56.60;;;;;;5091679;28;20028;-74
2021/11/05 09:17:52;;;;;;;2.08;1.10;;;16.50;58.40;;;;;;5091475;28;20024;-74
2021/11/05 09:20:19;;;;;;;4.30;1.55;;;16.40;58.00;;;;;;5091699;28;20051;-73
2021/11/05 09:22:46;;;;;;;1.95;1.00;;;16.60;57.60;;;;;;5094390;28;20084;-73
2021/11/05 09:25:12;;;;;;;2.05;1.00;;;16.80;58.00;;;;;;5093517;28;20385;-73
2021/11/05 09:27:38;;;;;;;2.83;1.13;;;17.00;57.10;;;;;;5092891;28;20065;-73
2021/11/05 09:30:09;;;;;;;4.13;1.10;;;17.20;57.00;;;;;;5091486;28;20016;-73
2021/11/05 09:32:35;;;;;;;1.75;1.10;;;17.10;57.70;;;;;;5091751;28;20024;-73
2021/11/05 09:35:01;;;;;;;1.90;0.90;;;17.20;56.00;;;;;;5092857;28;20028;-73
2021/11/05 09:37:27;;;;;;;2.28;1.10;;;17.30;55.70;;;;;;5093544;28;20038;-73
2021/11/05 09:39:52;;;;;;;3.13;1.13;;;17.30;55.10;;;;;;5091529;28;20028;-73
2021/11/05 09:42:18;;;;;;;1.58;1.10;;;17.30;56.40;;;;;;5091185;28;20366;-73
2021/11/05 09:44:44;;;;;;;1.75;1.10;;;17.40;55.10;;;;;;5091269;28;20052;-73
2021/11/05 09:47:12;;;;;;;2.17;1.10;;;17.60;55.50;;;;;;5090608;28;20085;-73
2021/11/05 09:49:38;;;;;;;2.10;1.20;;;17.80;54.60;;;;;;5090465;28;20036;-73
2021/11/05 09:52:05;;;;;;;1.70;1.02;;;17.90;53.80;;;;;;5091123;28;20404;-74
2021/11/05 09:54:34;;;;;;;2.40;1.10;;;17.90;53.70;;;;;;5091179;28;20169;-73
2021/11/05 09:57:02;;;;;;;1.88;0.85;;;18.00;52.70;;;;;;5090718;28;20020;-73
2021/11/05 09:59:28;;;;;;;1.85;1.15;;;18.10;52.70;;;;;;5091588;28;20481;-71
2021/11/05 10:01:54;;;;;;;1.70;0.98;;;18.20;53.20;;;;;;5093720;28;20081;-73
2021/11/05 10:04:19;;;;;;;1.77;1.13;;;18.30;51.20;;;;;;5092368;28;20035;-73
2021/11/05 10:07:12;;;;;;;2.38;1.00;;;18.40;50.80;;;;;;5092443;28;20472;-73
2021/11/05 10:09:51;;;;;;;1.77;1.00;;;18.10;51.90;;;;;;5089056;28;20484;-73
2021/11/05 10:12:26;;;;;;;1.55;0.82;;;18.20;50.60;;;;;;5091023;28;20492;-73
2021/11/05 10:15:01;;;;;;;2.47;0.80;;;17.90;50.00;;;;;;5090892;28;20061;-73
2021/11/05 10:17:28;;;;;;;3.40;1.00;;;18.00;52.00;;;;;;5091015;28;20033;-73
2021/11/05 10:20:06;;;;;;;1.73;1.05;;;18.30;51.00;;;;;;5088262;28;20060;-73
2021/11/05 10:22:34;;;;;;;2.10;0.93;;;18.60;53.20;;;;;;5093362;28;20078;-72
2021/11/05 10:25:27;;;;;;;2.40;1.00;;;18.90;50.80;;;;;;5101745;28;20106;-73
2021/11/05 10:28:16;;;;;;;1.88;0.90;;;19.10;51.40;;;;;;5092164;28;20065;-73
2021/11/05 10:30:44;;;;;;;2.60;0.90;;;19.10;51.10;;;;;;5084593;28;20040;-74
2021/11/05 10:33:16;;;;;;;0.85;0.52;;;19.10;48.40;;;;;;5090346;28;20016;-73
2021/11/05 10:35:45;;;;;;;1.25;0.60;;;18.90;47.30;;;;;;5090410;28;20035;-73
2021/11/05 10:38:12;;;;;;;1.90;0.60;;;19.10;47.80;;;;;;5074725;28;20024;-73
2021/11/05 10:40:43;;;;;;;1.13;0.60;;;19.10;46.50;;;;;;5091143;28;20131;-73
2021/11/05 10:43:11;;;;;;;1.20;0.57;;;19.30;46.40;;;;;;5090908;28;20540;-72
2021/11/05 10:45:38;;;;;;;1.17;0.60;;;19.40;45.10;;;;;;5090091;28;20027;-73
2021/11/05 10:48:15;;;;;;;2.20;0.68;;;19.60;47.20;;;;;;5089683;28;20556;-73
2021/11/05 10:50:50;;;;;;;1.75;0.60;;;19.90;47.00;;;;;;5089642;28;20039;-73
2021/11/05 10:53:29;;;;;;;2.63;0.63;;;20.20;47.10;;;;;;5075850;28;20039;-68
2021/11/05 10:55:57;;;;;;;1.95;0.80;;;20.10;44.50;;;;;;5092907;28;20082;-70
2021/11/05 10:58:30;;;;;;;2.88;0.80;;;19.70;44.30;;;;;;5091567;28;20023;-71
2021/11/05 11:01:15;;;;;;;2.42;0.73;;;19.40;46.10;;;;;;5089702;28;20032;-71
2021/11/05 11:03:52;;;;;;;1.48;0.75;;;19.40;47.70;;;;;;5089658;28;20039;-71
2021/11/05 11:06:29;;;;;;;1.63;0.60;;;19.50;47.60;;;;;;5089591;28;20377;-71
2021/11/05 11:09:03;;;;;;;2.13;0.88;;;19.60;47.20;;;;;;5089260;28;20036;-75
2021/11/05 11:11:36;;;;;;;1.35;0.60;;;19.60;45.50;;;;;;5089536;28;20013;-75
2021/11/05 11:14:06;;;;;;;3.15;0.70;;;19.50;45.10;;;;;;5090725;28;20031;-74
2021/11/05 11:16:44;;;;;;;1.65;0.63;;;19.40;45.50;;;;;;5092509;28;20043;-67
2021/11/05 11:19:15;;;;;;;1.25;0.63;;;19.30;46.00;;;;;;5090305;28;20070;-73
2021/11/05 11:21:45;;;;;;;1.15;0.40;;;19.60;47.40;;;;;;5090750;28;20119;-71
2021/11/05 11:24:16;;;;;;;1.20;0.70;;;19.70;44.80;;;;;;5089258;28;20027;-73
2021/11/05 11:26:44;;;;;;;1.85;0.65;;;19.70;44.90;;;;;;5088708;28;20115;-75
2021/11/05 11:29:11;;;;;;;1.40;0.55;;;19.80;45.60;;;;;;5073442;28;20016;-73
2021/11/05 11:31:38;;;;;;;0.90;0.40;;;19.90;44.70;;;;;;5087811;28;20158;-74
2021/11/05 11:34:06;;;;;;;1.77;0.55;;;20.00;44.40;;;;;;5089098;28;20047;-73
2021/11/05 11:36:34;;;;;;;1.17;0.50;;;20.10;44.40;;;;;;5089130;28;20024;-73
2021/11/05 11:39:04;;;;;;;1.90;0.57;;;20.30;44.60;;;;;;5088608;28;20109;-72
2021/11/05 11:41:32;;;;;;;0.85;0.50;;;20.00;42.60;;;;;;5089691;28;20036;-74
2021/11/05 11:44:00;;;;;;;2.70;0.68;;;19.70;43.30;;;;;;5089223;28;20473;-73
2021/11/05 11:46:26;;;;;;;1.90;0.60;;;19.90;42.90;;;;;;5090919;28;20024;-73
2021/11/05 11:48:55;;;;;;;0.70;0.40;;;19.80;42.40;;;;;;5088418;28;20064;-74
2021/11/05 11:51:28;;;;;;;1.85;0.45;;;19.90;43.20;;;;;;5088284;28;20028;-75
2021/11/05 11:54:01;;;;;;;1.50;0.50;;;19.80;43.40;;;;;;5088915;28;20022;-75
2021/11/05 11:56:37;;;;;;;1.60;0.50;;;19.80;42.70;;;;;;5089012;28;20032;-73
2021/11/05 11:59:06;;;;;;;1.20;0.50;;;19.80;42.70;;;;;;5090127;28;20035;-73
2021/11/05 12:01:35;;;;;;;2.00;0.60;;;19.90;42.70;;;;;;5091686;28;20099;-74
2021/11/05 12:04:06;;;;;;;1.25;0.50;;;19.90;42.10;;;;;;5088915;28;20031;-72
2021/11/05 12:06:51;;;;;;;2.35;0.43;;;20.00;42.80;;;;;;5088418;28;20027;-74
2021/11/05 12:09:35;;;;;;;2.05;0.40;;;20.30;44.00;;;;;;5088690;28;20032;-75
2021/11/05 12:12:20;;;;;;;1.92;0.50;;;20.00;41.30;;;;;;5088715;28;20440;-76
2021/11/05 12:15:00;;;;;;;3.15;0.63;;;19.90;43.20;;;;;;5088572;28;20484;-77
2021/11/05 12:17:48;;;;;;;1.42;0.38;;;20.10;44.00;;;;;;5088308;28;20473;-75
2021/11/05 12:20:32;;;;;;;2.50;0.50;;;20.30;42.50;;;;;;5072680;28;20020;-76
2021/11/05 12:23:13;;;;;;;2.70;0.40;;;20.90;44.30;;;;;;5090469;28;20564;-77
2021/11/05 12:25:58;;;;;;;1.33;0.50;;;20.40;41.00;;;;;;5103555;28;20400;-73
2021/11/05 12:28:28;;;;;;;1.95;0.40;;;20.00;41.30;;;;;;5090439;28;20040;-71
2021/11/05 12:31:25;;;;;;;1.10;0.40;;;20.80;45.50;;;;;;5088282;28;20024;-68
2021/11/05 12:33:51;;;;;;;0.70;0.35;;;21.60;44.00;;;;;;5087849;28;20020;-66
2021/11/05 12:36:17;;;;;;;1.60;0.45;;;21.40;39.70;;;;;;5087869;28;20056;-74
2021/11/05 12:39:01;;;;;;;1.55;0.40;;;22.50;42.50;;;;;;5089585;28;20071;-74
2021/11/05 12:41:27;;;;;;;1.38;0.50;;;24.10;41.20;;;;;;5078583;28;20074;-76
2021/11/05 12:43:54;;;;;;;1.27;0.50;;;23.40;34.20;;;;;;5069277;28;20513;-72
2021/11/05 12:46:22;;;;;;;1.10;0.50;;;21.70;33.60;;;;;;5083084;28;20020;-73
2021/11/05 12:48:56;;;;;;;1.30;0.50;;;20.30;35.60;;;;;;5082070;28;20040;-74
2021/11/05 12:51:24;;;;;;;2.13;0.50;;;19.50;38.40;;;;;;5088766;28;20107;-77